Time;durP1;ratioP1;P1;durP2;ratioP2;P2;SDS_P1;SDS_P2;PMS_P1;PMS_P2;Temp;Humidity;BMP_temperature;BMP_pressure;BME280_temperature;BME280_humidity;BME280_pressure;Samples;Min_cycle;Max_cycle;Signal;HPM_P1;HPM_P2
2021/10/30 00:00:21;;;;;;;22.00;18.73;;;8.00;99.90;;;;;;4980919;28;20506;-90
2021/10/30 00:02:48;;;;;;;23.80;19.30;;;8.00;99.90;;;;;;4987345;28;20448;-89
2021/10/30 00:05:15;;;;;;;28.07;19.37;;;8.00;99.90;;;;;;4980232;28;20483;-89
2021/10/30 00:07:42;;;;;;;27.20;20.43;;;8.00;99.90;;;;;;4980485;28;20452;-89
2021/10/30 00:10:10;;;;;;;23.33;20.53;;;7.90;99.90;;;;;;4979062;28;20456;-89
2021/10/30 00:12:37;;;;;;;25.40;20.00;;;7.90;99.90;;;;;;4979851;28;20466;-89
2021/10/30 00:15:06;;;;;;;23.13;19.70;;;7.90;99.90;;;;;;4984353;28;20491;-89
2021/10/30 00:17:34;;;;;;;23.70;19.27;;;7.90;99.90;;;;;;4989214;28;20444;-90
2021/10/30 00:20:00;;;;;;;22.40;20.00;;;7.90;99.90;;;;;;4987741;28;20515;-90
2021/10/30 00:22:29;;;;;;;24.03;19.07;;;7.90;99.90;;;;;;4983928;28;20450;-88
2021/10/30 00:24:55;;;;;;;24.60;18.97;;;7.80;99.90;;;;;;4989442;28;21011;-89
2021/10/30 00:27:22;;;;;;;25.70;19.83;;;7.80;99.90;;;;;;4980929;28;20451;-89
2021/10/30 00:29:49;;;;;;;23.57;18.83;;;7.80;99.90;;;;;;4981779;28;20444;-89
2021/10/30 00:32:17;;;;;;;26.30;19.60;;;7.80;99.90;;;;;;4995286;28;20543;-89
2021/10/30 00:34:44;;;;;;;23.43;18.00;;;7.70;99.90;;;;;;4999101;28;20468;-87
2021/10/30 00:37:10;;;;;;;22.20;18.10;;;7.70;99.90;;;;;;4997334;28;20458;-89
2021/10/30 00:39:38;;;;;;;22.73;19.70;;;7.70;99.90;;;;;;4981064;28;20482;-90
2021/10/30 00:42:06;;;;;;;23.03;18.60;;;7.60;99.90;;;;;;4979340;28;20451;-89
2021/10/30 00:44:33;;;;;;;23.17;20.77;;;7.70;99.90;;;;;;4979493;28;20476;-90
2021/10/30 00:47:00;;;;;;;24.47;19.13;;;7.70;99.90;;;;;;4978685;28;20452;-89
2021/10/30 00:49:29;;;;;;;21.20;18.30;;;7.60;99.90;;;;;;4978502;28;20459;-89
2021/10/30 00:51:57;;;;;;;21.53;17.67;;;7.60;99.90;;;;;;4978110;28;21059;-88
2021/10/30 00:54:25;;;;;;;22.00;19.27;;;7.60;99.90;;;;;;4983027;28;20471;-88
2021/10/30 00:56:56;;;;;;;23.10;19.40;;;7.50;99.90;;;;;;4988515;28;20444;-89
2021/10/30 00:59:23;;;;;;;23.90;19.90;;;7.50;99.90;;;;;;4998394;28;20432;-89
2021/10/30 01:01:52;;;;;;;21.87;19.17;;;7.40;99.90;;;;;;4990402;28;20466;-90
2021/10/30 01:04:20;;;;;;;21.57;18.37;;;7.50;99.90;;;;;;4978256;28;20464;-88
2021/10/30 01:06:51;;;;;;;23.90;19.73;;;7.50;99.90;;;;;;4977422;28;20475;-89
2021/10/30 01:09:19;;;;;;;22.63;17.80;;;7.40;99.90;;;;;;4987594;28;20515;-87
2021/10/30 01:11:46;;;;;;;20.57;18.00;;;7.40;99.90;;;;;;4999107;28;20468;-88
2021/10/30 01:14:13;;;;;;;25.00;19.50;;;7.30;99.90;;;;;;4981898;28;20498;-90
2021/10/30 01:16:40;;;;;;;23.23;19.03;;;7.40;99.90;;;;;;4978154;28;20460;-89
2021/10/30 01:19:07;;;;;;;25.57;19.30;;;7.30;99.90;;;;;;4978767;28;20447;-89
2021/10/30 01:21:38;;;;;;;20.50;17.20;;;7.30;99.90;;;;;;4985911;28;20448;-90
2021/10/30 01:24:07;;;;;;;23.47;19.80;;;7.30;99.90;;;;;;4978730;28;20468;-89
2021/10/30 01:26:33;;;;;;;22.17;18.77;;;7.30;99.90;;;;;;4977554;28;20470;-88
2021/10/30 01:29:02;;;;;;;23.67;19.43;;;7.30;99.90;;;;;;4977937;28;21016;-89
2021/10/30 01:31:29;;;;;;;21.10;17.70;;;7.40;99.90;;;;;;4977960;28;20480;-89
2021/10/30 01:33:56;;;;;;;22.67;18.43;;;7.40;99.90;;;;;;4976677;28;20471;-88
2021/10/30 01:36:23;;;;;;;25.13;19.93;;;7.40;99.90;;;;;;4976090;28;20444;-89
2021/10/30 01:38:52;;;;;;;22.40;18.97;;;7.40;99.90;;;;;;4976407;28;20460;-89
2021/10/30 01:41:23;;;;;;;20.23;18.03;;;7.30;99.90;;;;;;4976296;28;20499;-90
2021/10/30 01:43:50;;;;;;;21.30;17.20;;;7.30;99.90;;;;;;4976803;28;20528;-89
2021/10/30 01:46:18;;;;;;;22.57;18.27;;;7.30;99.90;;;;;;4979318;28;20820;-89
2021/10/30 01:48:45;;;;;;;22.50;17.30;;;7.30;99.90;;;;;;4978246;28;20925;-89
2021/10/30 01:51:13;;;;;;;23.47;19.00;;;7.30;99.90;;;;;;4976707;28;20992;-88
2021/10/30 01:53:40;;;;;;;21.60;18.53;;;7.30;99.90;;;;;;4990099;28;21009;-89
2021/10/30 01:56:10;;;;;;;22.10;17.90;;;7.20;99.90;;;;;;4977085;28;20837;-89
2021/10/30 01:58:37;;;;;;;23.37;20.43;;;7.20;99.90;;;;;;4989987;28;20452;-89
2021/10/30 02:01:06;;;;;;;20.73;17.80;;;7.20;99.90;;;;;;4993775;28;20438;-89
2021/10/30 02:03:33;;;;;;;23.07;19.27;;;7.20;99.90;;;;;;4978154;28;20479;-88
2021/10/30 02:06:01;;;;;;;22.63;18.03;;;7.20;99.90;;;;;;4977064;28;20535;-88
2021/10/30 02:08:28;;;;;;;23.80;18.27;;;7.10;99.90;;;;;;4976811;28;20456;-88
2021/10/30 02:10:55;;;;;;;23.63;17.60;;;7.10;99.90;;;;;;4977136;28;20997;-88
2021/10/30 02:13:24;;;;;;;21.63;19.43;;;7.10;99.90;;;;;;4991394;28;20551;-87
2021/10/30 02:15:51;;;;;;;24.30;19.23;;;7.10;99.90;;;;;;4977511;28;20452;-86
2021/10/30 02:18:18;;;;;;;19.23;16.90;;;7.10;99.90;;;;;;4994861;28;20451;-87
2021/10/30 02:20:46;;;;;;;23.27;18.27;;;7.10;99.90;;;;;;4987672;28;20976;-86
2021/10/30 02:23:13;;;;;;;21.30;16.90;;;7.10;99.90;;;;;;4986604;28;20448;-88
2021/10/30 02:25:40;;;;;;;22.50;19.10;;;7.00;99.90;;;;;;4976604;28;20812;-89
2021/10/30 02:28:07;;;;;;;20.97;18.67;;;7.00;99.90;;;;;;4977848;28;20468;-87
2021/10/30 02:30:35;;;;;;;20.73;18.20;;;7.00;99.90;;;;;;4977560;28;20460;-88
2021/10/30 02:33:02;;;;;;;23.63;18.43;;;7.00;99.90;;;;;;4980551;28;20448;-87
2021/10/30 02:35:29;;;;;;;19.87;16.53;;;6.90;99.90;;;;;;4987991;28;20466;-88
2021/10/30 02:37:56;;;;;;;22.67;19.87;;;6.90;99.90;;;;;;4997003;28;20499;-86
2021/10/30 02:40:23;;;;;;;19.57;17.00;;;6.90;99.90;;;;;;4999361;28;20424;-86
2021/10/30 02:42:49;;;;;;;21.30;16.70;;;6.90;99.90;;;;;;4999181;28;20435;-86
2021/10/30 02:45:16;;;;;;;20.70;16.40;;;6.90;99.90;;;;;;4998983;28;20515;-86
2021/10/30 02:47:44;;;;;;;19.73;17.63;;;6.90;99.90;;;;;;4999336;28;20499;-85
2021/10/30 02:50:11;;;;;;;20.80;16.93;;;6.80;99.90;;;;;;4992541;28;20535;-88
2021/10/30 02:52:39;;;;;;;22.20;17.87;;;6.80;99.90;;;;;;4991098;28;20491;-87
2021/10/30 02:55:06;;;;;;;19.70;17.70;;;6.70;99.90;;;;;;4998377;28;20467;-87
2021/10/30 02:57:33;;;;;;;18.70;16.70;;;6.70;99.90;;;;;;4998293;28;20432;-86
2021/10/30 03:00:00;;;;;;;20.53;15.87;;;6.80;99.90;;;;;;4997464;28;20463;-86
2021/10/30 03:02:27;;;;;;;19.90;17.73;;;6.80;99.90;;;;;;4978769;28;20452;-89
2021/10/30 03:04:55;;;;;;;19.90;17.20;;;6.70;99.90;;;;;;4975733;28;20981;-88
2021/10/30 03:07:22;;;;;;;21.23;17.50;;;6.70;99.90;;;;;;4978600;28;20462;-88
2021/10/30 03:09:51;;;;;;;20.40;17.40;;;6.80;99.90;;;;;;4989579;28;20504;-88
2021/10/30 03:12:18;;;;;;;17.87;15.80;;;6.70;99.90;;;;;;4979637;28;20479;-88
2021/10/30 03:14:46;;;;;;;19.23;16.20;;;6.70;99.90;;;;;;4978851;28;20484;-88
2021/10/30 03:17:12;;;;;;;18.67;16.67;;;6.70;99.90;;;;;;4979242;28;20523;-88
2021/10/30 03:19:39;;;;;;;20.23;17.27;;;6.70;99.90;;;;;;4978762;28;20456;-88
2021/10/30 03:22:08;;;;;;;20.00;17.07;;;6.70;99.90;;;;;;4979623;28;20506;-86
2021/10/30 03:24:36;;;;;;;19.47;15.20;;;6.70;99.90;;;;;;4985364;28;20507;-87
2021/10/30 03:27:02;;;;;;;17.77;15.67;;;6.70;99.90;;;;;;4981776;28;20852;-88
2021/10/30 03:29:29;;;;;;;23.10;16.00;;;6.70;99.90;;;;;;4979736;28;20456;-88
2021/10/30 03:31:56;;;;;;;21.47;17.80;;;6.70;99.90;;;;;;4999623;28;20739;-86
2021/10/30 03:34:23;;;;;;;20.97;17.13;;;6.60;99.90;;;;;;4992327;28;20464;-86
2021/10/30 03:36:50;;;;;;;19.17;17.00;;;6.60;99.90;;;;;;4982597;28;20874;-88
2021/10/30 03:39:18;;;;;;;19.60;17.50;;;6.60;99.90;;;;;;4983876;28;20471;-88
2021/10/30 03:41:45;;;;;;;19.57;15.80;;;6.60;99.90;;;;;;4981801;28;20462;-87
2021/10/30 03:44:14;;;;;;;21.37;17.30;;;6.60;99.90;;;;;;4985586;28;20471;-85
2021/10/30 03:46:40;;;;;;;21.40;16.20;;;6.60;99.90;;;;;;4990354;28;20492;-88
2021/10/30 03:49:07;;;;;;;21.47;16.50;;;6.60;99.90;;;;;;4980876;28;21433;-87
2021/10/30 03:51:34;;;;;;;23.20;17.37;;;6.50;99.90;;;;;;4982104;28;20475;-88
2021/10/30 03:54:01;;;;;;;18.67;15.83;;;6.50;99.90;;;;;;4982198;28;20471;-88
2021/10/30 03:56:29;;;;;;;19.70;17.13;;;6.50;99.90;;;;;;4980023;28;20456;-88
2021/10/30 03:58:56;;;;;;;21.17;17.00;;;6.40;99.90;;;;;;4980711;28;20544;-88
2021/10/30 04:01:23;;;;;;;20.27;16.73;;;6.40;99.90;;;;;;4996635;28;20436;-88
2021/10/30 04:03:50;;;;;;;19.63;16.70;;;6.30;99.90;;;;;;4992522;28;20608;-89
2021/10/30 04:06:16;;;;;;;20.97;16.77;;;6.30;99.90;;;;;;4960601;28;20457;-89
2021/10/30 04:08:44;;;;;;;17.30;13.73;;;6.30;99.90;;;;;;4968417;28;20453;-89
2021/10/30 04:11:11;;;;;;;19.63;16.03;;;6.30;99.90;;;;;;4977920;28;20487;-88
2021/10/30 04:13:39;;;;;;;21.50;15.70;;;6.30;99.90;;;;;;4979099;28;20476;-88
2021/10/30 04:16:06;;;;;;;21.67;17.60;;;6.30;99.90;;;;;;4979639;28;20455;-89
2021/10/30 04:18:33;;;;;;;19.03;15.40;;;6.20;99.90;;;;;;4978846;28;20456;-90
2021/10/30 04:21:00;;;;;;;18.00;15.13;;;6.20;99.90;;;;;;4980963;28;20444;-89
2021/10/30 04:23:27;;;;;;;22.63;16.70;;;6.20;99.90;;;;;;4988350;28;20867;-88
2021/10/30 04:25:54;;;;;;;17.10;15.37;;;6.10;99.90;;;;;;4991470;28;20437;-89
2021/10/30 04:28:21;;;;;;;19.83;15.60;;;6.10;99.90;;;;;;4981836;28;20434;-89
2021/10/30 04:30:50;;;;;;;22.40;16.30;;;6.10;99.90;;;;;;4978258;28;20452;-89
2021/10/30 04:33:17;;;;;;;18.60;15.40;;;6.10;99.90;;;;;;4989824;28;21016;-87
2021/10/30 04:35:46;;;;;;;17.50;15.57;;;6.10;99.90;;;;;;4995607;28;20436;-88
2021/10/30 04:38:13;;;;;;;17.53;15.20;;;6.10;99.90;;;;;;4993161;28;20433;-88
2021/10/30 04:40:40;;;;;;;18.30;15.17;;;6.10;99.90;;;;;;4979588;28;20479;-88
2021/10/30 04:43:07;;;;;;;19.50;15.60;;;6.00;99.90;;;;;;4993205;28;20448;-88
2021/10/30 04:45:34;;;;;;;19.13;15.60;;;5.90;99.90;;;;;;4988590;28;20436;-87
2021/10/30 04:48:02;;;;;;;17.00;15.10;;;5.90;99.90;;;;;;5000706;28;20447;-87
2021/10/30 04:50:29;;;;;;;20.93;15.47;;;5.90;99.90;;;;;;5000452;28;20508;-85
2021/10/30 04:52:55;;;;;;;16.97;14.53;;;5.90;99.90;;;;;;4986021;28;20854;-89
2021/10/30 04:55:24;;;;;;;19.43;15.40;;;5.90;99.90;;;;;;4976008;28;20480;-88
2021/10/30 04:57:51;;;;;;;18.33;14.70;;;5.80;99.90;;;;;;4956678;28;20452;-87
2021/10/30 05:00:18;;;;;;;18.87;14.90;;;5.90;99.90;;;;;;4965563;28;20444;-89
2021/10/30 05:02:45;;;;;;;17.73;14.13;;;5.90;99.90;;;;;;4976081;28;20444;-88
2021/10/30 05:05:13;;;;;;;17.47;13.63;;;5.90;99.90;;;;;;4975442;28;20997;-89
2021/10/30 05:07:40;;;;;;;16.83;14.70;;;5.90;99.90;;;;;;4975789;28;20543;-89
2021/10/30 05:10:07;;;;;;;16.03;13.10;;;6.00;99.90;;;;;;4987530;28;20438;-88
2021/10/30 05:12:34;;;;;;;18.30;14.90;;;5.90;99.90;;;;;;4977093;28;20471;-89
2021/10/30 05:15:01;;;;;;;16.53;14.20;;;5.90;99.90;;;;;;4974991;28;20487;-88
2021/10/30 05:17:28;;;;;;;17.70;14.97;;;5.90;99.90;;;;;;4977007;28;20448;-89
2021/10/30 05:19:55;;;;;;;20.07;15.27;;;5.90;99.90;;;;;;4990443;28;20436;-89
2021/10/30 05:22:23;;;;;;;19.20;14.83;;;5.80;99.90;;;;;;4980118;28;20531;-89
2021/10/30 05:24:50;;;;;;;17.53;14.60;;;5.80;99.90;;;;;;4979737;28;20475;-88
2021/10/30 05:27:17;;;;;;;16.60;13.73;;;5.80;99.90;;;;;;4975920;28;20488;-89
2021/10/30 05:29:43;;;;;;;21.20;16.40;;;5.70;99.90;;;;;;4975296;28;20455;-89
2021/10/30 05:32:10;;;;;;;19.33;16.13;;;5.70;99.90;;;;;;4984856;28;20491;-89
2021/10/30 05:34:37;;;;;;;15.60;13.53;;;5.70;99.90;;;;;;4977370;28;20472;-89
2021/10/30 05:37:04;;;;;;;20.13;17.00;;;5.70;99.90;;;;;;4975968;28;20480;-89
2021/10/30 05:39:35;;;;;;;18.93;16.03;;;5.80;99.90;;;;;;4976865;28;20456;-89
2021/10/30 05:42:03;;;;;;;18.40;14.30;;;5.80;99.90;;;;;;4985382;28;20479;-87
2021/10/30 05:44:29;;;;;;;19.87;16.13;;;5.70;99.90;;;;;;4987941;28;20482;-88
2021/10/30 05:46:56;;;;;;;19.17;15.67;;;5.60;99.90;;;;;;4993858;28;20433;-89
2021/10/30 05:49:23;;;;;;;16.17;13.10;;;5.60;99.90;;;;;;4977460;28;20499;-89
2021/10/30 05:51:50;;;;;;;15.80;14.20;;;5.70;99.90;;;;;;4992705;28;20519;-86
2021/10/30 05:54:17;;;;;;;16.07;13.93;;;5.70;99.90;;;;;;4994563;28;20479;-88
2021/10/30 05:56:45;;;;;;;21.90;14.27;;;5.70;99.90;;;;;;4976162;28;20456;-89
2021/10/30 05:59:12;;;;;;;18.53;14.23;;;5.80;99.90;;;;;;4976060;28;20451;-89
2021/10/30 06:01:39;;;;;;;17.00;13.03;;;5.80;99.90;;;;;;4976364;28;20960;-88
2021/10/30 06:04:06;;;;;;;20.10;15.17;;;5.80;99.90;;;;;;4975871;28;20479;-88
2021/10/30 06:06:33;;;;;;;16.67;14.50;;;5.70;99.90;;;;;;4975389;28;20936;-89
2021/10/30 06:09:00;;;;;;;17.43;15.53;;;5.70;99.90;;;;;;4974727;28;20535;-88
2021/10/30 06:11:26;;;;;;;15.03;13.43;;;5.70;99.90;;;;;;4975445;28;20441;-89
2021/10/30 06:13:55;;;;;;;16.13;14.00;;;5.70;99.90;;;;;;4975116;28;20484;-88
2021/10/30 06:16:25;;;;;;;16.50;13.10;;;5.80;99.90;;;;;;4976092;28;20438;-88
2021/10/30 06:18:52;;;;;;;16.37;14.23;;;5.80;99.90;;;;;;4994003;28;20463;-88
2021/10/30 06:21:19;;;;;;;19.10;13.67;;;5.70;99.90;;;;;;4983183;28;20443;-89
2021/10/30 06:23:48;;;;;;;17.93;13.73;;;5.70;99.90;;;;;;4977477;28;20472;-88
2021/10/30 06:26:15;;;;;;;17.60;13.57;;;5.70;99.90;;;;;;4980625;28;20451;-89
2021/10/30 06:28:43;;;;;;;15.90;12.60;;;5.80;99.90;;;;;;4977584;28;20432;-88
2021/10/30 06:31:11;;;;;;;14.20;12.53;;;5.70;99.90;;;;;;4982133;28;20456;-88
2021/10/30 06:33:38;;;;;;;15.67;13.43;;;5.80;99.90;;;;;;4986960;28;20496;-89
2021/10/30 06:36:05;;;;;;;16.10;13.77;;;5.80;99.90;;;;;;4987372;28;21007;-88
2021/10/30 06:38:31;;;;;;;17.77;14.83;;;5.80;99.90;;;;;;4988102;28;20851;-87
2021/10/30 06:41:01;;;;;;;17.40;15.00;;;5.80;99.90;;;;;;4992879;28;20820;-90
2021/10/30 06:43:28;;;;;;;17.93;13.10;;;5.80;99.90;;;;;;4986882;28;20464;-88
2021/10/30 06:45:55;;;;;;;15.37;13.43;;;5.80;99.90;;;;;;4992889;28;20458;-88
2021/10/30 06:48:24;;;;;;;14.43;12.90;;;5.90;99.90;;;;;;4980569;28;20463;-88
2021/10/30 06:50:51;;;;;;;16.60;13.50;;;5.90;99.90;;;;;;4978741;28;20436;-89
2021/10/30 06:53:17;;;;;;;16.07;13.53;;;6.00;99.90;;;;;;4981584;28;20499;-89
2021/10/30 06:55:44;;;;;;;18.57;13.93;;;6.10;99.90;;;;;;4990925;28;20448;-89
2021/10/30 06:58:11;;;;;;;18.17;14.37;;;6.20;99.90;;;;;;5001444;28;20502;-89
2021/10/30 07:00:38;;;;;;;21.53;15.70;;;6.20;99.90;;;;;;4983014;28;20447;-89
2021/10/30 07:03:07;;;;;;;16.43;13.67;;;6.30;99.90;;;;;;4980015;28;20456;-91
2021/10/30 07:05:37;;;;;;;18.40;13.47;;;6.40;99.90;;;;;;5019676;23;20489;-93
2021/10/30 07:08:05;;;;;;;18.10;15.03;;;6.50;99.90;;;;;;5016041;28;20502;-93
2021/10/30 07:10:32;;;;;;;14.97;13.20;;;6.50;99.90;;;;;;5017874;28;20443;-93
2021/10/30 07:13:00;;;;;;;15.87;13.73;;;6.60;99.90;;;;;;5010543;28;20486;-92
2021/10/30 07:15:27;;;;;;;17.57;13.33;;;6.70;99.90;;;;;;5010071;28;20487;-92
2021/10/30 07:17:54;;;;;;;17.20;13.83;;;6.90;99.90;;;;;;5007402;28;20479;-93
2021/10/30 07:20:21;;;;;;;17.20;13.20;;;7.00;99.90;;;;;;4988679;28;20468;-93
2021/10/30 07:22:52;;;;;;;14.13;12.40;;;7.20;99.90;;;;;;4987010;28;20480;-93
2021/10/30 07:25:21;;;;;;;16.20;13.97;;;7.30;99.90;;;;;;5005783;28;21007;-94
2021/10/30 07:27:48;;;;;;;15.07;13.20;;;7.40;99.90;;;;;;5019241;28;20426;-93
2021/10/30 07:30:16;;;;;;;17.70;13.63;;;7.60;99.90;;;;;;5018824;28;20489;-93
2021/10/30 07:32:43;;;;;;;20.13;14.37;;;7.70;99.90;;;;;;5011187;28;20484;-94
2021/10/30 07:35:10;;;;;;;16.93;14.30;;;7.70;99.90;;;;;;5014122;28;20509;-93
2021/10/30 07:37:38;;;;;;;15.93;12.53;;;7.90;99.90;;;;;;5005556;28;20447;-92
2021/10/30 07:40:08;;;;;;;13.93;12.50;;;7.90;99.90;;;;;;5004010;28;21037;-92
2021/10/30 07:42:35;;;;;;;14.63;12.33;;;8.00;99.90;;;;;;5003853;28;20463;-93
2021/10/30 07:45:04;;;;;;;14.73;13.20;;;8.00;99.90;;;;;;5011557;28;20465;-92
2021/10/30 07:47:31;;;;;;;16.13;14.37;;;8.10;99.90;;;;;;5020408;28;20439;-92
2021/10/30 07:50:00;;;;;;;17.10;13.57;;;8.30;99.90;;;;;;5016015;28;20435;-94
2021/10/30 07:52:30;;;;;;;17.40;14.30;;;8.40;99.90;;;;;;5020598;28;20439;-94
2021/10/30 07:54:58;;;;;;;16.70;15.00;;;8.40;99.90;;;;;;5009591;28;20456;-93
2021/10/30 07:57:26;;;;;;;16.90;15.10;;;8.50;99.90;;;;;;5004888;28;20455;-86
2021/10/30 07:59:53;;;;;;;17.13;14.67;;;8.50;99.90;;;;;;5011364;28;20437;-86
2021/10/30 08:02:20;;;;;;;17.30;13.73;;;8.70;99.90;;;;;;5013206;28;20439;-86
2021/10/30 08:04:47;;;;;;;16.40;14.80;;;8.80;99.90;;;;;;5007891;28;20451;-86
2021/10/30 08:07:14;;;;;;;16.20;13.90;;;8.90;99.90;;;;;;5009174;28;20454;-86
2021/10/30 08:09:42;;;;;;;16.47;13.53;;;9.00;99.90;;;;;;5018715;28;20431;-86
2021/10/30 08:12:09;;;;;;;16.00;13.70;;;9.20;99.90;;;;;;5009666;28;20446;-87
2021/10/30 08:14:38;;;;;;;14.57;13.07;;;9.30;99.90;;;;;;5007814;28;20859;-87
2021/10/30 08:17:05;;;;;;;16.90;14.07;;;9.70;99.90;;;;;;5008002;28;20459;-86
2021/10/30 08:19:32;;;;;;;13.50;12.10;;;10.10;99.90;;;;;;5019295;28;20444;-85
2021/10/30 08:21:58;;;;;;;15.77;14.10;;;10.20;99.90;;;;;;5017004;28;20482;-86
2021/10/30 08:24:25;;;;;;;15.37;13.87;;;10.30;99.90;;;;;;5013578;28;20449;-87
2021/10/30 08:26:54;;;;;;;16.33;12.10;;;10.60;99.90;;;;;;5014674;28;20459;-93
2021/10/30 08:29:25;;;;;;;13.50;12.13;;;10.50;99.90;;;;;;5016377;28;20444;-93
2021/10/30 08:31:55;;;;;;;16.50;12.00;;;10.50;99.90;;;;;;5017492;28;20451;-95
2021/10/30 08:34:23;;;;;;;13.17;11.87;;;10.60;99.90;;;;;;5013685;28;20472;-95
2021/10/30 08:37:19;;;;;;;16.23;14.53;;;10.60;99.90;;;;;;5016150;28;20475;-93
2021/10/30 09:24:24;;;;;;;17.33;13.00;;;11.50;99.90;;;;;;4124811;26;20847;-89
2021/10/30 09:26:53;;;;;;;14.47;12.40;;;11.40;99.90;;;;;;4989472;28;20464;-91
2021/10/30 09:29:19;;;;;;;13.97;12.47;;;11.30;99.90;;;;;;4994902;28;20472;-90
2021/10/30 09:31:46;;;;;;;15.53;13.40;;;11.20;99.90;;;;;;4995038;28;20450;-88
2021/10/30 09:34:13;;;;;;;15.53;14.00;;;11.20;99.90;;;;;;4991716;28;20489;-85
2021/10/30 09:36:43;;;;;;;14.40;13.00;;;11.00;99.90;;;;;;4987366;28;20472;-84
2021/10/30 09:39:12;;;;;;;15.10;13.60;;;10.90;99.90;;;;;;4982642;28;21027;-84
2021/10/30 09:41:41;;;;;;;15.40;13.43;;;10.90;99.90;;;;;;4985138;28;20462;-83
2021/10/30 09:44:10;;;;;;;15.07;13.57;;;10.80;99.90;;;;;;5001715;28;20432;-84
2021/10/30 09:46:39;;;;;;;17.17;14.70;;;10.70;99.90;;;;;;4989087;28;20462;-84
2021/10/30 09:49:13;;;;;;;14.30;12.33;;;10.70;99.90;;;;;;4985763;28;20448;-84
2021/10/30 09:51:40;;;;;;;15.73;14.13;;;10.70;99.90;;;;;;4985158;28;20534;-85
2021/10/30 09:54:07;;;;;;;37.83;24.47;;;10.70;99.90;;;;;;4987111;28;21213;-85
2021/10/30 09:56:41;;;;;;;28.03;19.97;;;10.60;99.90;;;;;;4993409;28;20464;-83
2021/10/30 09:59:10;;;;;;;22.60;19.00;;;10.70;99.90;;;;;;5006299;28;20428;-84
2021/10/30 10:01:38;;;;;;;25.93;18.30;;;10.70;99.90;;;;;;4999116;28;20455;-84
2021/10/30 10:04:06;;;;;;;20.57;18.37;;;10.80;99.90;;;;;;4987130;28;20445;-90
2021/10/30 10:06:35;;;;;;;19.77;16.33;;;10.80;99.90;;;;;;4990314;28;20464;-91
2021/10/30 10:09:02;;;;;;;17.90;16.00;;;10.80;99.90;;;;;;4990195;28;20460;-90
2021/10/30 10:11:30;;;;;;;15.53;14.00;;;10.90;99.90;;;;;;4999338;28;20459;-92
2021/10/30 10:14:18;;;;;;;16.77;15.07;;;10.90;99.90;;;;;;4990501;28;20478;-90
2021/10/30 10:16:45;;;;;;;15.80;13.90;;;10.80;99.90;;;;;;4990690;28;20476;-91
2021/10/30 10:19:24;;;;;;;15.50;13.90;;;10.80;99.90;;;;;;4989446;28;20444;-92
2021/10/30 10:22:26;;;;;;;17.10;14.57;;;10.90;99.90;;;;;;4993654;28;20451;-91
2021/10/30 10:24:53;;;;;;;17.20;13.87;;;11.00;99.90;;;;;;4984155;28;20782;-91
2021/10/30 10:28:21;;;;;;;17.40;14.40;;;11.10;99.90;;;;;;4989799;28;20439;-93
2021/10/30 10:31:16;;;;;;;16.40;14.60;;;11.20;99.90;;;;;;4978327;28;20482;-92
2021/10/30 10:33:45;;;;;;;15.40;13.87;;;11.10;99.90;;;;;;4991057;28;20474;-91
2021/10/30 10:36:31;;;;;;;16.77;14.23;;;11.20;99.90;;;;;;4990816;28;20551;-90
2021/10/30 10:39:25;;;;;;;17.00;13.90;;;11.20;99.90;;;;;;4984451;28;20424;-92
2021/10/30 10:42:06;;;;;;;14.87;13.30;;;11.20;99.90;;;;;;5002857;28;20462;-94
2021/10/30 10:44:55;;;;;;;16.27;14.10;;;11.30;99.90;;;;;;4987930;28;20440;-90
2021/10/30 10:47:54;;;;;;;16.37;14.50;;;11.40;99.90;;;;;;4986470;28;20976;-91
2021/10/30 10:50:26;;;;;;;16.27;14.57;;;11.40;99.90;;;;;;4985261;28;20443;-92
2021/10/30 10:53:16;;;;;;;16.80;14.57;;;11.50;99.90;;;;;;4988330;28;20521;-90
2021/10/30 10:59:06;;;;;;;14.40;12.93;;;11.40;99.90;;;;;;5008961;28;20511;-89
2021/10/30 11:01:37;;;;;;;16.13;14.43;;;11.50;99.90;;;;;;5003447;28;20428;-91
2021/10/30 11:04:19;;;;;;;16.30;14.70;;;11.40;99.90;;;;;;4995807;28;20457;-92
2021/10/30 11:06:48;;;;;;;15.90;14.40;;;11.50;99.90;;;;;;4996207;28;20922;-92
2021/10/30 11:09:16;;;;;;;17.47;14.50;;;11.40;99.90;;;;;;4989814;28;20499;-92
2021/10/30 11:11:44;;;;;;;16.13;14.40;;;11.20;99.90;;;;;;4995903;28;20450;-91
2021/10/30 11:14:14;;;;;;;17.23;15.40;;;11.00;99.90;;;;;;4986937;28;20478;-91
2021/10/30 11:16:44;;;;;;;15.77;14.23;;;11.20;99.90;;;;;;4989385;28;20460;-91
2021/10/30 11:19:28;;;;;;;14.80;13.40;;;11.30;99.90;;;;;;4989202;28;20443;-91
2021/10/30 11:22:08;;;;;;;22.43;20.30;;;11.30;99.90;;;;;;4986576;28;20471;-91
2021/10/30 11:24:48;;;;;;;17.27;13.87;;;11.30;99.90;;;;;;4986740;28;20516;-91
2021/10/30 11:27:15;;;;;;;18.30;15.10;;;11.30;99.90;;;;;;4989666;28;20483;-88
2021/10/30 11:29:48;;;;;;;18.47;16.63;;;11.30;99.90;;;;;;4990635;28;20909;-90
2021/10/30 12:00:22;;;;;;;19.10;16.13;;;11.50;99.90;;;;;;4996049;28;20451;-90
2021/10/30 12:03:01;;;;;;;20.30;16.13;;;11.30;99.90;;;;;;4992089;28;20467;-90
2021/10/30 12:05:33;;;;;;;17.20;15.37;;;11.10;99.90;;;;;;4988279;28;20513;-90
2021/10/30 12:08:07;;;;;;;19.17;16.37;;;10.80;99.90;;;;;;4985902;28;20445;-90
2021/10/30 12:10:35;;;;;;;19.27;17.17;;;10.80;99.90;;;;;;4986814;28;20940;-90
2021/10/30 12:13:07;;;;;;;20.37;16.63;;;10.80;99.90;;;;;;5006458;28;20440;-90
2021/10/30 12:15:39;;;;;;;22.40;18.23;;;10.60;99.90;;;;;;5000968;28;20511;-90
2021/10/30 12:18:06;;;;;;;21.37;19.30;;;10.60;99.90;;;;;;5005904;28;20464;-91
2021/10/30 12:20:33;;;;;;;20.03;17.93;;;10.60;99.90;;;;;;4998828;28;20434;-91
2021/10/30 12:23:00;;;;;;;20.57;18.50;;;10.60;99.90;;;;;;5007166;28;20458;-91
2021/10/30 12:25:30;;;;;;;22.43;19.30;;;10.50;99.90;;;;;;4992679;28;20463;-91
2021/10/30 12:27:57;;;;;;;24.47;20.70;;;10.50;99.90;;;;;;4986151;28;20490;-90
2021/10/30 12:30:26;;;;;;;21.63;19.33;;;10.60;99.90;;;;;;4984919;28;20937;-91
2021/10/30 12:32:54;;;;;;;23.20;18.60;;;10.60;99.90;;;;;;4986634;28;20456;-90
2021/10/30 12:35:22;;;;;;;21.57;18.83;;;10.60;99.90;;;;;;4995833;28;20483;-89
2021/10/30 12:37:50;;;;;;;25.27;21.83;;;10.60;99.90;;;;;;5004434;28;20444;-92
2021/10/30 12:40:29;;;;;;;23.00;20.57;;;10.50;99.90;;;;;;4989955;28;20448;-91
2021/10/30 12:43:03;;;;;;;19.93;17.83;;;10.60;99.90;;;;;;4988788;28;20479;-91
2021/10/30 12:45:42;;;;;;;22.17;19.80;;;10.70;99.90;;;;;;4982203;28;20539;-91
2021/10/30 12:48:16;;;;;;;23.23;20.43;;;10.70;99.90;;;;;;4982034;28;20835;-91
2021/10/30 12:50:53;;;;;;;20.63;18.30;;;10.90;99.90;;;;;;4988682;28;20471;-90
2021/10/30 12:53:25;;;;;;;22.87;18.73;;;10.90;99.90;;;;;;4982002;28;20452;-91
2021/10/30 12:56:07;;;;;;;23.53;19.10;;;11.00;99.90;;;;;;4992050;28;20482;-91
2021/10/30 12:58:36;;;;;;;21.57;19.37;;;11.10;99.90;;;;;;4993820;28;20454;-92
2021/10/30 13:01:31;;;;;;;21.83;19.63;;;11.10;99.90;;;;;;4996148;28;20463;-92
2021/10/30 13:04:04;;;;;;;23.87;20.47;;;11.20;99.90;;;;;;4992114;28;20450;-91
2021/10/30 13:06:33;;;;;;;23.93;20.33;;;11.20;99.90;;;;;;4993515;28;20451;-90
2021/10/30 13:09:10;;;;;;;36.00;30.10;;;11.10;99.90;;;;;;5010193;28;20464;-89
2021/10/30 13:11:48;;;;;;;25.87;23.17;;;11.10;99.90;;;;;;5003874;28;20555;-89
2021/10/30 13:14:21;;;;;;;24.17;20.87;;;11.20;99.90;;;;;;4991757;28;20478;-91
2021/10/30 13:16:48;;;;;;;24.00;21.63;;;11.20;99.90;;;;;;4992396;28;20547;-90
2021/10/30 13:19:16;;;;;;;24.30;21.33;;;11.20;99.90;;;;;;4999766;28;20464;-89
2021/10/30 13:21:43;;;;;;;24.53;21.87;;;11.20;99.90;;;;;;5009874;28;20442;-92
2021/10/30 13:24:13;;;;;;;26.53;22.27;;;11.30;99.90;;;;;;4995482;28;20452;-91
2021/10/30 13:27:03;;;;;;;26.80;22.93;;;11.30;99.90;;;;;;4993181;28;20471;-91
2021/10/30 13:29:52;;;;;;;25.07;22.67;;;11.30;99.90;;;;;;4998194;28;20459;-92
2021/10/30 13:35:02;;;;;;;24.63;22.00;;;11.20;99.90;;;;;;4993154;28;21409;-90
2021/10/30 13:37:29;;;;;;;26.40;22.17;;;11.20;99.90;;;;;;4995456;28;20450;-90
2021/10/30 13:40:03;;;;;;;25.97;23.03;;;11.10;99.90;;;;;;4994444;28;20455;-90
2021/10/30 13:42:30;;;;;;;24.80;22.10;;;11.10;99.90;;;;;;4992322;28;20506;-91
2021/10/30 13:44:57;;;;;;;24.80;21.40;;;11.10;99.90;;;;;;4989462;28;20446;-90
2021/10/30 13:47:24;;;;;;;25.27;22.50;;;11.20;99.90;;;;;;4983197;28;20448;-89
2021/10/30 13:49:51;;;;;;;23.70;21.17;;;11.10;99.90;;;;;;4976805;28;20443;-90
2021/10/30 13:52:19;;;;;;;26.10;22.00;;;11.00;99.90;;;;;;4980346;28;20466;-90
2021/10/30 13:54:49;;;;;;;25.77;23.00;;;11.10;99.90;;;;;;4977797;28;20486;-90
2021/10/30 13:57:23;;;;;;;25.67;22.07;;;11.10;99.90;;;;;;4989807;28;20470;-90
2021/10/30 13:59:55;;;;;;;25.33;22.83;;;11.00;99.90;;;;;;4987762;28;20467;-88
2021/10/30 14:02:27;;;;;;;24.50;22.10;;;11.10;99.90;;;;;;4992142;28;20527;-90